sensor_id;sensor_type;location;lat;lon;timestamp;P1;durP1;ratioP1;P2;durP2;ratioP2
19547;SDS011;9919;58.014;11.826;2022-08-21T00:00:20;0.40;;;0.40;;
19547;SDS011;9919;58.014;11.826;2022-08-21T00:02:25;2.42;;;0.63;;
19547;SDS011;9919;58.014;11.826;2022-08-21T00:04:28;0.52;;;0.52;;
19547;SDS011;9919;58.014;11.826;2022-08-21T00:06:29;0.40;;;0.35;;
19547;SDS011;9919;58.014;11.826;2022-08-21T00:08:33;0.52;;;0.40;;
19547;SDS011;9919;58.014;11.826;2022-08-21T00:10:34;0.40;;;0.40;;
19547;SDS011;9919;58.014;11.826;2022-08-21T00:12:36;0.93;;;0.80;;
19547;SDS011;9919;58.014;11.826;2022-08-21T00:14:38;0.75;;;0.50;;
19547;SDS011;9919;58.014;11.826;2022-08-21T00:16:40;2.47;;;0.75;;
19547;SDS011;9919;58.014;11.826;2022-08-21T00:18:42;0.50;;;0.50;;
19547;SDS011;9919;58.014;11.826;2022-08-21T00:20:45;0.50;;;0.50;;
19547;SDS011;9919;58.014;11.826;2022-08-21T00:22:48;0.90;;;0.60;;
19547;SDS011;9919;58.014;11.826;2022-08-21T00:24:49;0.50;;;0.50;;
19547;SDS011;9919;58.014;11.826;2022-08-21T00:26:51;0.60;;;0.60;;
19547;SDS011;9919;58.014;11.826;2022-08-21T00:28:53;2.20;;;0.60;;
19547;SDS011;9919;58.014;11.826;2022-08-21T00:30:54;0.90;;;0.70;;
19547;SDS011;9919;58.014;11.826;2022-08-21T00:32:56;0.65;;;0.60;;
19547;SDS011;9919;58.014;11.826;2022-08-21T00:34:58;1.63;;;0.50;;
19547;SDS011;9919;58.014;11.826;2022-08-21T00:36:59;1.55;;;0.50;;
19547;SDS011;9919;58.014;11.826;2022-08-21T00:39:01;0.60;;;0.60;;
19547;SDS011;9919;58.014;11.826;2022-08-21T00:41:05;0.70;;;0.65;;
19547;SDS011;9919;58.014;11.826;2022-08-21T00:43:09;1.33;;;0.63;;
19547;SDS011;9919;58.014;11.826;2022-08-21T00:45:12;1.42;;;0.57;;
19547;SDS011;9919;58.014;11.826;2022-08-21T00:47:14;0.98;;;0.65;;
19547;SDS011;9919;58.014;11.826;2022-08-21T00:49:16;0.43;;;0.35;;
19547;SDS011;9919;58.014;11.826;2022-08-21T00:51:25;1.10;;;0.57;;
19547;SDS011;9919;58.014;11.826;2022-08-21T00:53:35;0.50;;;0.40;;
19547;SDS011;9919;58.014;11.826;2022-08-21T00:55:38;0.30;;;0.30;;
19547;SDS011;9919;58.014;11.826;2022-08-21T00:57:44;0.40;;;0.40;;
19547;SDS011;9919;58.014;11.826;2022-08-21T00:59:48;1.58;;;0.57;;
19547;SDS011;9919;58.014;11.826;2022-08-21T01:01:51;0.93;;;0.50;;
19547;SDS011;9919;58.014;11.826;2022-08-21T01:03:52;0.45;;;0.40;;
19547;SDS011;9919;58.014;11.826;2022-08-21T01:05:54;0.47;;;0.45;;
19547;SDS011;9919;58.014;11.826;2022-08-21T01:07:56;0.52;;;0.52;;
19547;SDS011;9919;58.014;11.826;2022-08-21T01:09:58;1.75;;;0.40;;
19547;SDS011;9919;58.014;11.826;2022-08-21T01:11:59;1.08;;;0.55;;
19547;SDS011;9919;58.014;11.826;2022-08-21T01:14:02;0.17;;;0.17;;
19547;SDS011;9919;58.014;11.826;2022-08-21T01:16:04;0.68;;;0.68;;
19547;SDS011;9919;58.014;11.826;2022-08-21T01:18:09;1.08;;;0.50;;
19547;SDS011;9919;58.014;11.826;2022-08-21T01:20:12;0.25;;;0.25;;
19547;SDS011;9919;58.014;11.826;2022-08-21T01:22:14;1.35;;;0.60;;
19547;SDS011;9919;58.014;11.826;2022-08-21T01:24:15;0.55;;;0.50;;
19547;SDS011;9919;58.014;11.826;2022-08-21T01:26:23;0.40;;;0.40;;
19547;SDS011;9919;58.014;11.826;2022-08-21T01:28:26;0.57;;;0.57;;
19547;SDS011;9919;58.014;11.826;2022-08-21T01:30:30;0.50;;;0.50;;
19547;SDS011;9919;58.014;11.826;2022-08-21T01:32:36;0.40;;;0.40;;
19547;SDS011;9919;58.014;11.826;2022-08-21T01:34:39;1.10;;;0.50;;
19547;SDS011;9919;58.014;11.826;2022-08-21T01:36:44;0.40;;;0.40;;
19547;SDS011;9919;58.014;11.826;2022-08-21T01:38:46;1.20;;;0.40;;
19547;SDS011;9919;58.014;11.826;2022-08-21T01:40:48;0.40;;;0.40;;
19547;SDS011;9919;58.014;11.826;2022-08-21T01:42:49;0.73;;;0.70;;
19547;SDS011;9919;58.014;11.826;2022-08-21T01:44:51;0.40;;;0.40;;
19547;SDS011;9919;58.014;11.826;2022-08-21T01:46:53;0.30;;;0.30;;
19547;SDS011;9919;58.014;11.826;2022-08-21T01:48:55;0.40;;;0.40;;
19547;SDS011;9919;58.014;11.826;2022-08-21T01:50:56;0.55;;;0.40;;
19547;SDS011;9919;58.014;11.826;2022-08-21T01:52:58;0.43;;;0.43;;
19547;SDS011;9919;58.014;11.826;2022-08-21T01:55:00;0.60;;;0.50;;
19547;SDS011;9919;58.014;11.826;2022-08-21T01:57:03;2.28;;;0.60;;
19547;SDS011;9919;58.014;11.826;2022-08-21T01:59:05;0.40;;;0.35;;
19547;SDS011;9919;58.014;11.826;2022-08-21T02:01:08;0.52;;;0.52;;
19547;SDS011;9919;58.014;11.826;2022-08-21T02:03:10;0.60;;;0.60;;
19547;SDS011;9919;58.014;11.826;2022-08-21T02:05:12;0.57;;;0.57;;
19547;SDS011;9919;58.014;11.826;2022-08-21T02:07:13;0.52;;;0.45;;
19547;SDS011;9919;58.014;11.826;2022-08-21T02:09:16;0.30;;;0.30;;
19547;SDS011;9919;58.014;11.826;2022-08-21T02:11:17;0.90;;;0.40;;
19547;SDS011;9919;58.014;11.826;2022-08-21T02:13:19;0.40;;;0.40;;
19547;SDS011;9919;58.014;11.826;2022-08-21T02:15:20;0.43;;;0.40;;
19547;SDS011;9919;58.014;11.826;2022-08-21T02:17:22;0.60;;;0.60;;
19547;SDS011;9919;58.014;11.826;2022-08-21T02:19:24;0.63;;;0.30;;
19547;SDS011;9919;58.014;11.826;2022-08-21T02:21:25;0.43;;;0.43;;
19547;SDS011;9919;58.014;11.826;2022-08-21T02:23:26;0.50;;;0.50;;
19547;SDS011;9919;58.014;11.826;2022-08-21T02:25:28;0.38;;;0.38;;
19547;SDS011;9919;58.014;11.826;2022-08-21T02:27:32;0.40;;;0.40;;
19547;SDS011;9919;58.014;11.826;2022-08-21T02:29:39;0.43;;;0.43;;
19547;SDS011;9919;58.014;11.826;2022-08-21T02:31:40;0.80;;;0.63;;
19547;SDS011;9919;58.014;11.826;2022-08-21T02:33:42;0.50;;;0.50;;
19547;SDS011;9919;58.014;11.826;2022-08-21T02:35:44;0.45;;;0.45;;
19547;SDS011;9919;58.014;11.826;2022-08-21T02:37:48;0.95;;;0.40;;
19547;SDS011;9919;58.014;11.826;2022-08-21T02:39:49;0.57;;;0.57;;
19547;SDS011;9919;58.014;11.826;2022-08-21T02:41:51;0.50;;;0.50;;
19547;SDS011;9919;58.014;11.826;2022-08-21T02:43:52;0.35;;;0.35;;
19547;SDS011;9919;58.014;11.826;2022-08-21T02:45:54;0.95;;;0.60;;
19547;SDS011;9919;58.014;11.826;2022-08-21T02:47:58;0.47;;;0.47;;
19547;SDS011;9919;58.014;11.826;2022-08-21T02:50:01;1.23;;;0.40;;
19547;SDS011;9919;58.014;11.826;2022-08-21T02:52:04;1.00;;;0.55;;
19547;SDS011;9919;58.014;11.826;2022-08-21T02:54:05;1.17;;;0.60;;
19547;SDS011;9919;58.014;11.826;2022-08-21T02:56:08;0.38;;;0.38;;
19547;SDS011;9919;58.014;11.826;2022-08-21T02:58:11;0.70;;;0.30;;
19547;SDS011;9919;58.014;11.826;2022-08-21T03:00:15;0.47;;;0.35;;
19547;SDS011;9919;58.014;11.826;2022-08-21T03:02:17;0.45;;;0.45;;
19547;SDS011;9919;58.014;11.826;2022-08-21T03:04:18;0.40;;;0.40;;
19547;SDS011;9919;58.014;11.826;2022-08-21T03:06:20;0.50;;;0.50;;
19547;SDS011;9919;58.014;11.826;2022-08-21T03:08:22;2.17;;;0.50;;
19547;SDS011;9919;58.014;11.826;2022-08-21T03:10:24;0.47;;;0.47;;
19547;SDS011;9919;58.014;11.826;2022-08-21T03:12:27;0.60;;;0.60;;
19547;SDS011;9919;58.014;11.826;2022-08-21T03:14:28;0.50;;;0.50;;
19547;SDS011;9919;58.014;11.826;2022-08-21T03:16:30;1.05;;;0.50;;
19547;SDS011;9919;58.014;11.826;2022-08-21T03:18:31;0.57;;;0.30;;
19547;SDS011;9919;58.014;11.826;2022-08-21T03:20:33;0.40;;;0.40;;
19547;SDS011;9919;58.014;11.826;2022-08-21T03:22:36;0.60;;;0.60;;
19547;SDS011;9919;58.014;11.826;2022-08-21T03:24:37;0.20;;;0.20;;
19547;SDS011;9919;58.014;11.826;2022-08-21T03:26:38;0.52;;;0.52;;
19547;SDS011;9919;58.014;11.826;2022-08-21T03:28:39;0.40;;;0.40;;
19547;SDS011;9919;58.014;11.826;2022-08-21T03:30:42;2.05;;;0.57;;
19547;SDS011;9919;58.014;11.826;2022-08-21T03:32:44;0.45;;;0.40;;
19547;SDS011;9919;58.014;11.826;2022-08-21T03:34:46;0.30;;;0.30;;
19547;SDS011;9919;58.014;11.826;2022-08-21T03:36:48;0.70;;;0.43;;
19547;SDS011;9919;58.014;11.826;2022-08-21T03:38:49;0.30;;;0.30;;
19547;SDS011;9919;58.014;11.826;2022-08-21T03:40:53;0.50;;;0.50;;
19547;SDS011;9919;58.014;11.826;2022-08-21T03:42:54;0.30;;;0.30;;
19547;SDS011;9919;58.014;11.826;2022-08-21T03:44:55;0.52;;;0.52;;
19547;SDS011;9919;58.014;11.826;2022-08-21T03:46:57;0.50;;;0.50;;
19547;SDS011;9919;58.014;11.826;2022-08-21T03:48:58;0.47;;;0.47;;
19547;SDS011;9919;58.014;11.826;2022-08-21T03:51:00;0.60;;;0.40;;
19547;SDS011;9919;58.014;11.826;2022-08-21T03:53:02;0.63;;;0.63;;
19547;SDS011;9919;58.014;11.826;2022-08-21T03:55:04;1.27;;;0.63;;
19547;SDS011;9919;58.014;11.826;2022-08-21T03:57:06;0.57;;;0.50;;
19547;SDS011;9919;58.014;11.826;2022-08-21T03:59:09;1.95;;;0.60;;
19547;SDS011;9919;58.014;11.826;2022-08-21T04:01:12;0.50;;;0.50;;
19547;SDS011;9919;58.014;11.826;2022-08-21T04:03:13;0.43;;;0.43;;
19547;SDS011;9919;58.014;11.826;2022-08-21T04:05:15;0.40;;;0.35;;
19547;SDS011;9919;58.014;11.826;2022-08-21T04:07:26;0.50;;;0.40;;
19547;SDS011;9919;58.014;11.826;2022-08-21T04:09:28;0.52;;;0.47;;
19547;SDS011;9919;58.014;11.826;2022-08-21T04:11:30;0.50;;;0.50;;
19547;SDS011;9919;58.014;11.826;2022-08-21T04:13:32;0.20;;;0.20;;
19547;SDS011;9919;58.014;11.826;2022-08-21T04:15:34;0.30;;;0.30;;
19547;SDS011;9919;58.014;11.826;2022-08-21T04:17:35;0.40;;;0.40;;
19547;SDS011;9919;58.014;11.826;2022-08-21T04:19:37;0.52;;;0.50;;
19547;SDS011;9919;58.014;11.826;2022-08-21T04:21:40;0.30;;;0.30;;
19547;SDS011;9919;58.014;11.826;2022-08-21T04:23:41;0.38;;;0.38;;
19547;SDS011;9919;58.014;11.826;2022-08-21T04:25:43;0.65;;;0.50;;
19547;SDS011;9919;58.014;11.826;2022-08-21T04:27:44;0.85;;;0.52;;
19547;SDS011;9919;58.014;11.826;2022-08-21T04:29:45;0.30;;;0.30;;
19547;SDS011;9919;58.014;11.826;2022-08-21T04:31:48;0.47;;;0.47;;
19547;SDS011;9919;58.014;11.826;2022-08-21T04:33:50;0.40;;;0.38;;
19547;SDS011;9919;58.014;11.826;2022-08-21T04:35:52;0.50;;;0.50;;
19547;SDS011;9919;58.014;11.826;2022-08-21T04:37:53;0.88;;;0.70;;
19547;SDS011;9919;58.014;11.826;2022-08-21T04:39:56;0.85;;;0.65;;
19547;SDS011;9919;58.014;11.826;2022-08-21T04:41:59;0.75;;;0.43;;
19547;SDS011;9919;58.014;11.826;2022-08-21T04:44:03;0.40;;;0.40;;
19547;SDS011;9919;58.014;11.826;2022-08-21T04:46:04;1.35;;;0.50;;
19547;SDS011;9919;58.014;11.826;2022-08-21T04:48:07;0.52;;;0.30;;
19547;SDS011;9919;58.014;11.826;2022-08-21T04:50:09;1.48;;;0.50;;
19547;SDS011;9919;58.014;11.826;2022-08-21T04:52:11;0.43;;;0.30;;
19547;SDS011;9919;58.014;11.826;2022-08-21T04:54:19;0.98;;;0.60;;
19547;SDS011;9919;58.014;11.826;2022-08-21T04:56:56;0.50;;;0.50;;
19547;SDS011;9919;58.014;11.826;2022-08-21T04:58:53;0.85;;;0.50;;
19547;SDS011;9919;58.014;11.826;2022-08-21T05:00:58;0.40;;;0.40;;
19547;SDS011;9919;58.014;11.826;2022-08-21T05:03:02;0.30;;;0.30;;
19547;SDS011;9919;58.014;11.826;2022-08-21T05:05:04;1.50;;;0.60;;
19547;SDS011;9919;58.014;11.826;2022-08-21T05:07:09;0.32;;;0.32;;
19547;SDS011;9919;58.014;11.826;2022-08-21T05:09:14;1.02;;;0.50;;
19547;SDS011;9919;58.014;11.826;2022-08-21T05:11:16;0.47;;;0.47;;
19547;SDS011;9919;58.014;11.826;2022-08-21T05:13:20;0.40;;;0.40;;
19547;SDS011;9919;58.014;11.826;2022-08-21T05:15:22;0.63;;;0.57;;
19547;SDS011;9919;58.014;11.826;2022-08-21T05:17:24;0.55;;;0.52;;
19547;SDS011;9919;58.014;11.826;2022-08-21T05:19:26;1.02;;;0.43;;
19547;SDS011;9919;58.014;11.826;2022-08-21T05:21:28;0.57;;;0.55;;
19547;SDS011;9919;58.014;11.826;2022-08-21T05:23:31;0.60;;;0.60;;
19547;SDS011;9919;58.014;11.826;2022-08-21T05:25:33;0.50;;;0.50;;
19547;SDS011;9919;58.014;11.826;2022-08-21T05:27:35;0.93;;;0.50;;
19547;SDS011;9919;58.014;11.826;2022-08-21T05:29:37;0.63;;;0.63;;
19547;SDS011;9919;58.014;11.826;2022-08-21T05:31:38;0.52;;;0.52;;
19547;SDS011;9919;58.014;11.826;2022-08-21T05:33:39;0.82;;;0.50;;
19547;SDS011;9919;58.014;11.826;2022-08-21T05:35:41;0.68;;;0.60;;
19547;SDS011;9919;58.014;11.826;2022-08-21T05:37:42;0.70;;;0.70;;
19547;SDS011;9919;58.014;11.826;2022-08-21T05:39:44;1.25;;;0.55;;
19547;SDS011;9919;58.014;11.826;2022-08-21T05:41:46;1.23;;;0.52;;
19547;SDS011;9919;58.014;11.826;2022-08-21T05:43:49;0.57;;;0.57;;
19547;SDS011;9919;58.014;11.826;2022-08-21T05:45:51;1.23;;;0.50;;
19547;SDS011;9919;58.014;11.826;2022-08-21T05:47:52;0.85;;;0.65;;
19547;SDS011;9919;58.014;11.826;2022-08-21T05:49:54;0.40;;;0.40;;
19547;SDS011;9919;58.014;11.826;2022-08-21T05:51:55;0.50;;;0.50;;
19547;SDS011;9919;58.014;11.826;2022-08-21T05:53:57;0.63;;;0.40;;
19547;SDS011;9919;58.014;11.826;2022-08-21T05:55:59;0.70;;;0.70;;
19547;SDS011;9919;58.014;11.826;2022-08-21T05:58:03;0.60;;;0.60;;
19547;SDS011;9919;58.014;11.826;2022-08-21T06:00:05;0.38;;;0.38;;
19547;SDS011;9919;58.014;11.826;2022-08-21T06:02:12;0.40;;;0.40;;
19547;SDS011;9919;58.014;11.826;2022-08-21T06:04:15;0.47;;;0.47;;
19547;SDS011;9919;58.014;11.826;2022-08-21T06:06:18;0.50;;;0.50;;
19547;SDS011;9919;58.014;11.826;2022-08-21T06:08:20;1.27;;;0.73;;
19547;SDS011;9919;58.014;11.826;2022-08-21T06:10:21;0.52;;;0.40;;
19547;SDS011;9919;58.014;11.826;2022-08-21T06:12:23;1.05;;;0.50;;
19547;SDS011;9919;58.014;11.826;2022-08-21T06:14:25;0.40;;;0.40;;
19547;SDS011;9919;58.014;11.826;2022-08-21T06:16:27;0.43;;;0.43;;
19547;SDS011;9919;58.014;11.826;2022-08-21T06:18:30;1.35;;;0.52;;
19547;SDS011;9919;58.014;11.826;2022-08-21T06:20:31;0.60;;;0.60;;
19547;SDS011;9919;58.014;11.826;2022-08-21T06:22:33;0.95;;;0.63;;
19547;SDS011;9919;58.014;11.826;2022-08-21T06:24:35;0.50;;;0.50;;
19547;SDS011;9919;58.014;11.826;2022-08-21T06:26:36;0.50;;;0.50;;
19547;SDS011;9919;58.014;11.826;2022-08-21T06:28:38;1.45;;;0.70;;
19547;SDS011;9919;58.014;11.826;2022-08-21T06:30:40;0.47;;;0.47;;
19547;SDS011;9919;58.014;11.826;2022-08-21T06:32:42;0.50;;;0.50;;
19547;SDS011;9919;58.014;11.826;2022-08-21T06:34:43;0.90;;;0.55;;
19547;SDS011;9919;58.014;11.826;2022-08-21T06:36:45;0.60;;;0.60;;
19547;SDS011;9919;58.014;11.826;2022-08-21T06:38:47;0.65;;;0.65;;
19547;SDS011;9919;58.014;11.826;2022-08-21T06:40:48;0.40;;;0.40;;
19547;SDS011;9919;58.014;11.826;2022-08-21T06:42:49;0.40;;;0.40;;
19547;SDS011;9919;58.014;11.826;2022-08-21T06:44:51;1.33;;;0.50;;
19547;SDS011;9919;58.014;11.826;2022-08-21T06:46:52;0.70;;;0.70;;
19547;SDS011;9919;58.014;11.826;2022-08-21T06:48:54;0.50;;;0.50;;
19547;SDS011;9919;58.014;11.826;2022-08-21T06:50:55;1.00;;;0.50;;
19547;SDS011;9919;58.014;11.826;2022-08-21T06:53:03;0.65;;;0.55;;
19547;SDS011;9919;58.014;11.826;2022-08-21T06:55:07;0.40;;;0.40;;
19547;SDS011;9919;58.014;11.826;2022-08-21T06:57:11;0.60;;;0.52;;
19547;SDS011;9919;58.014;11.826;2022-08-21T06:59:12;0.52;;;0.52;;
19547;SDS011;9919;58.014;11.826;2022-08-21T07:01:14;0.50;;;0.50;;
19547;SDS011;9919;58.014;11.826;2022-08-21T07:03:16;0.55;;;0.55;;
19547;SDS011;9919;58.014;11.826;2022-08-21T07:05:26;0.40;;;0.40;;
19547;SDS011;9919;58.014;11.826;2022-08-21T07:07:30;2.35;;;0.60;;
19547;SDS011;9919;58.014;11.826;2022-08-21T07:09:31;0.55;;;0.55;;
19547;SDS011;9919;58.014;11.826;2022-08-21T07:11:32;0.75;;;0.50;;
19547;SDS011;9919;58.014;11.826;2022-08-21T07:13:36;0.98;;;0.80;;
19547;SDS011;9919;58.014;11.826;2022-08-21T07:15:37;0.57;;;0.57;;
19547;SDS011;9919;58.014;11.826;2022-08-21T07:17:38;1.10;;;0.60;;
19547;SDS011;9919;58.014;11.826;2022-08-21T07:19:40;0.52;;;0.52;;
19547;SDS011;9919;58.014;11.826;2022-08-21T07:21:41;0.90;;;0.80;;
19547;SDS011;9919;58.014;11.826;2022-08-21T07:23:45;0.63;;;0.63;;
19547;SDS011;9919;58.014;11.826;2022-08-21T07:25:50;0.50;;;0.50;;
19547;SDS011;9919;58.014;11.826;2022-08-21T07:27:52;1.80;;;0.65;;
19547;SDS011;9919;58.014;11.826;2022-08-21T07:29:53;2.10;;;0.60;;
19547;SDS011;9919;58.014;11.826;2022-08-21T07:31:55;0.80;;;0.60;;
19547;SDS011;9919;58.014;11.826;2022-08-21T07:33:58;3.55;;;0.80;;
19547;SDS011;9919;58.014;11.826;2022-08-21T07:35:59;1.50;;;0.90;;
19547;SDS011;9919;58.014;11.826;2022-08-21T07:38:01;0.77;;;0.77;;
19547;SDS011;9919;58.014;11.826;2022-08-21T07:40:02;1.17;;;0.70;;
19547;SDS011;9919;58.014;11.826;2022-08-21T07:42:05;0.88;;;0.75;;
19547;SDS011;9919;58.014;11.826;2022-08-21T07:44:06;1.05;;;0.75;;
19547;SDS011;9919;58.014;11.826;2022-08-21T07:46:07;1.38;;;0.90;;
19547;SDS011;9919;58.014;11.826;2022-08-21T07:48:09;1.77;;;0.75;;
19547;SDS011;9919;58.014;11.826;2022-08-21T07:50:11;2.40;;;1.05;;
19547;SDS011;9919;58.014;11.826;2022-08-21T07:52:13;1.55;;;0.77;;
19547;SDS011;9919;58.014;11.826;2022-08-21T07:54:14;1.05;;;0.63;;
19547;SDS011;9919;58.014;11.826;2022-08-21T07:56:15;0.80;;;0.80;;
19547;SDS011;9919;58.014;11.826;2022-08-21T07:58:17;1.23;;;0.77;;
19547;SDS011;9919;58.014;11.826;2022-08-21T08:00:19;2.33;;;0.55;;
19547;SDS011;9919;58.014;11.826;2022-08-21T08:02:27;2.70;;;0.68;;
19547;SDS011;9919;58.014;11.826;2022-08-21T08:04:29;0.68;;;0.68;;
19547;SDS011;9919;58.014;11.826;2022-08-21T08:06:30;0.35;;;0.35;;
19547;SDS011;9919;58.014;11.826;2022-08-21T08:08:32;1.65;;;0.93;;
19547;SDS011;9919;58.014;11.826;2022-08-21T08:10:33;1.48;;;0.70;;
19547;SDS011;9919;58.014;11.826;2022-08-21T08:12:36;3.03;;;1.17;;
19547;SDS011;9919;58.014;11.826;2022-08-21T08:14:39;4.30;;;0.90;;
19547;SDS011;9919;58.014;11.826;2022-08-21T08:16:40;2.92;;;0.88;;
19547;SDS011;9919;58.014;11.826;2022-08-21T08:18:41;2.30;;;1.10;;
19547;SDS011;9919;58.014;11.826;2022-08-21T08:20:44;3.10;;;1.13;;
19547;SDS011;9919;58.014;11.826;2022-08-21T08:22:45;1.65;;;0.90;;
19547;SDS011;9919;58.014;11.826;2022-08-21T08:24:47;3.67;;;0.95;;
19547;SDS011;9919;58.014;11.826;2022-08-21T08:26:48;4.65;;;1.50;;
19547;SDS011;9919;58.014;11.826;2022-08-21T08:28:50;2.00;;;0.70;;
19547;SDS011;9919;58.014;11.826;2022-08-21T08:30:51;2.70;;;1.25;;
19547;SDS011;9919;58.014;11.826;2022-08-21T08:32:52;1.67;;;1.17;;
19547;SDS011;9919;58.014;11.826;2022-08-21T08:34:54;5.68;;;1.20;;
19547;SDS011;9919;58.014;11.826;2022-08-21T08:36:56;1.08;;;0.98;;
19547;SDS011;9919;58.014;11.826;2022-08-21T08:38:58;1.17;;;0.90;;
19547;SDS011;9919;58.014;11.826;2022-08-21T08:43:15;2.97;;;0.88;;
19547;SDS011;9919;58.014;11.826;2022-08-21T08:45:18;3.17;;;0.90;;
19547;SDS011;9919;58.014;11.826;2022-08-21T08:47:22;1.60;;;0.77;;
19547;SDS011;9919;58.014;11.826;2022-08-21T08:54:00;2.15;;;1.02;;
19547;SDS011;9919;58.014;11.826;2022-08-21T08:56:03;2.90;;;0.98;;
19547;SDS011;9919;58.014;11.826;2022-08-21T08:58:06;2.63;;;0.90;;
19547;SDS011;9919;58.014;11.826;2022-08-21T09:00:18;0.60;;;0.60;;
19547;SDS011;9919;58.014;11.826;2022-08-21T09:02:20;1.27;;;0.82;;
19547;SDS011;9919;58.014;11.826;2022-08-21T09:04:27;2.03;;;0.90;;
19547;SDS011;9919;58.014;11.826;2022-08-21T09:08:49;1.58;;;0.77;;
19547;SDS011;9919;58.014;11.826;2022-08-21T09:11:04;0.93;;;0.93;;
19547;SDS011;9919;58.014;11.826;2022-08-21T09:13:24;1.10;;;0.80;;
19547;SDS011;9919;58.014;11.826;2022-08-21T09:17:59;0.90;;;0.85;;
19547;SDS011;9919;58.014;11.826;2022-08-21T09:22:38;0.73;;;0.73;;
19547;SDS011;9919;58.014;11.826;2022-08-21T09:24:54;1.13;;;0.88;;
19547;SDS011;9919;58.014;11.826;2022-08-21T09:27:02;1.25;;;0.88;;
19547;SDS011;9919;58.014;11.826;2022-08-21T09:29:08;2.20;;;1.08;;
19547;SDS011;9919;58.014;11.826;2022-08-21T09:31:25;1.00;;;0.90;;
19547;SDS011;9919;58.014;11.826;2022-08-21T09:33:32;0.90;;;0.70;;
19547;SDS011;9919;58.014;11.826;2022-08-21T09:35:33;2.55;;;0.80;;
19547;SDS011;9919;58.014;11.826;2022-08-21T09:39:59;1.08;;;0.50;;
19547;SDS011;9919;58.014;11.826;2022-08-21T09:42:03;1.55;;;0.88;;
19547;SDS011;9919;58.014;11.826;2022-08-21T09:44:06;1.48;;;0.57;;
19547;SDS011;9919;58.014;11.826;2022-08-21T09:46:09;1.52;;;0.77;;
19547;SDS011;9919;58.014;11.826;2022-08-21T09:50:25;0.88;;;0.85;;
19547;SDS011;9919;58.014;11.826;2022-08-21T09:52:27;4.97;;;0.93;;
19547;SDS011;9919;58.014;11.826;2022-08-21T09:54:31;0.50;;;0.50;;
19547;SDS011;9919;58.014;11.826;2022-08-21T09:56:39;0.80;;;0.80;;
19547;SDS011;9919;58.014;11.826;2022-08-21T09:59:15;2.22;;;1.10;;
19547;SDS011;9919;58.014;11.826;2022-08-21T10:01:41;0.88;;;0.80;;
19547;SDS011;9919;58.014;11.826;2022-08-21T10:03:48;0.90;;;0.77;;
19547;SDS011;9919;58.014;11.826;2022-08-21T10:06:09;0.65;;;0.65;;
19547;SDS011;9919;58.014;11.826;2022-08-21T10:08:20;1.65;;;0.90;;
19547;SDS011;9919;58.014;11.826;2022-08-21T10:10:26;1.05;;;0.90;;
19547;SDS011;9919;58.014;11.826;2022-08-21T10:17:17;0.80;;;0.80;;
19547;SDS011;9919;58.014;11.826;2022-08-21T10:19:30;1.52;;;0.98;;
19547;SDS011;9919;58.014;11.826;2022-08-21T10:24:13;0.60;;;0.60;;
19547;SDS011;9919;58.014;11.826;2022-08-21T10:28:41;0.63;;;0.63;;
19547;SDS011;9919;58.014;11.826;2022-08-21T10:31:03;0.80;;;0.80;;
19547;SDS011;9919;58.014;11.826;2022-08-21T10:35:22;1.63;;;0.60;;
19547;SDS011;9919;58.014;11.826;2022-08-21T10:37:40;0.50;;;0.50;;
19547;SDS011;9919;58.014;11.826;2022-08-21T10:42:35;0.98;;;0.73;;
19547;SDS011;9919;58.014;11.826;2022-08-21T10:45:10;2.72;;;1.13;;
19547;SDS011;9919;58.014;11.826;2022-08-21T10:55:16;1.13;;;0.90;;
19547;SDS011;9919;58.014;11.826;2022-08-21T10:57:19;0.68;;;0.68;;
19547;SDS011;9919;58.014;11.826;2022-08-21T10:59:31;0.70;;;0.70;;
19547;SDS011;9919;58.014;11.826;2022-08-21T11:01:46;3.50;;;0.68;;
19547;SDS011;9919;58.014;11.826;2022-08-21T11:04:23;1.95;;;0.60;;
19547;SDS011;9919;58.014;11.826;2022-08-21T11:06:32;0.90;;;0.90;;
19547;SDS011;9919;58.014;11.826;2022-08-21T11:08:37;1.25;;;0.70;;
19547;SDS011;9919;58.014;11.826;2022-08-21T11:10:42;1.10;;;0.77;;
19547;SDS011;9919;58.014;11.826;2022-08-21T11:13:28;1.50;;;1.10;;
19547;SDS011;9919;58.014;11.826;2022-08-21T11:15:52;1.65;;;1.08;;
19547;SDS011;9919;58.014;11.826;2022-08-21T11:18:02;1.77;;;1.08;;
19547;SDS011;9919;58.014;11.826;2022-08-21T11:20:39;0.95;;;0.73;;
19547;SDS011;9919;58.014;11.826;2022-08-21T11:22:46;1.95;;;1.08;;
19547;SDS011;9919;58.014;11.826;2022-08-21T11:25:23;1.15;;;1.05;;
19547;SDS011;9919;58.014;11.826;2022-08-21T11:29:36;1.23;;;0.85;;
19547;SDS011;9919;58.014;11.826;2022-08-21T11:34:08;1.85;;;0.88;;
19547;SDS011;9919;58.014;11.826;2022-08-21T11:38:34;1.73;;;0.63;;
19547;SDS011;9919;58.014;11.826;2022-08-21T11:41:03;0.60;;;0.60;;
19547;SDS011;9919;58.014;11.826;2022-08-21T11:45:32;1.25;;;0.80;;
19547;SDS011;9919;58.014;11.826;2022-08-21T11:48:23;0.95;;;0.60;;
19547;SDS011;9919;58.014;11.826;2022-08-21T11:50:21;0.80;;;0.80;;
19547;SDS011;9919;58.014;11.826;2022-08-21T11:54:44;1.75;;;0.85;;
19547;SDS011;9919;58.014;11.826;2022-08-21T11:56:59;0.65;;;0.65;;
19547;SDS011;9919;58.014;11.826;2022-08-21T11:59:10;1.33;;;0.88;;
19547;SDS011;9919;58.014;11.826;2022-08-21T12:01:17;1.50;;;0.75;;
19547;SDS011;9919;58.014;11.826;2022-08-21T12:05:37;1.42;;;1.10;;
19547;SDS011;9919;58.014;11.826;2022-08-21T12:07:41;2.20;;;1.08;;
19547;SDS011;9919;58.014;11.826;2022-08-21T12:10:59;1.60;;;1.02;;
19547;SDS011;9919;58.014;11.826;2022-08-21T12:13:08;0.95;;;0.85;;
19547;SDS011;9919;58.014;11.826;2022-08-21T12:17:39;0.70;;;0.70;;
19547;SDS011;9919;58.014;11.826;2022-08-21T12:19:57;0.77;;;0.77;;
19547;SDS011;9919;58.014;11.826;2022-08-21T12:26:27;4.22;;;1.20;;
19547;SDS011;9919;58.014;11.826;2022-08-21T12:28:30;0.80;;;0.80;;
19547;SDS011;9919;58.014;11.826;2022-08-21T12:35:07;1.48;;;0.80;;
19547;SDS011;9919;58.014;11.826;2022-08-21T12:39:44;0.85;;;0.60;;
19547;SDS011;9919;58.014;11.826;2022-08-21T12:41:48;1.35;;;0.85;;
19547;SDS011;9919;58.014;11.826;2022-08-21T12:43:59;0.80;;;0.80;;
19547;SDS011;9919;58.014;11.826;2022-08-21T12:46:32;0.80;;;0.80;;
19547;SDS011;9919;58.014;11.826;2022-08-21T12:48:48;2.78;;;0.90;;
19547;SDS011;9919;58.014;11.826;2022-08-21T12:51:10;0.85;;;0.82;;
19547;SDS011;9919;58.014;11.826;2022-08-21T12:55:25;0.77;;;0.77;;
19547;SDS011;9919;58.014;11.826;2022-08-21T12:57:29;1.48;;;0.90;;
19547;SDS011;9919;58.014;11.826;2022-08-21T12:59:31;1.30;;;0.88;;
19547;SDS011;9919;58.014;11.826;2022-08-21T13:01:45;1.48;;;0.80;;
19547;SDS011;9919;58.014;11.826;2022-08-21T13:03:52;0.75;;;0.73;;
19547;SDS011;9919;58.014;11.826;2022-08-21T13:05:55;1.42;;;0.90;;
19547;SDS011;9919;58.014;11.826;2022-08-21T13:07:58;0.75;;;0.75;;
19547;SDS011;9919;58.014;11.826;2022-08-21T13:10:06;1.02;;;0.90;;
19547;SDS011;9919;58.014;11.826;2022-08-21T13:12:28;1.30;;;0.77;;
19547;SDS011;9919;58.014;11.826;2022-08-21T13:14:31;0.80;;;0.80;;
19547;SDS011;9919;58.014;11.826;2022-08-21T13:16:41;1.23;;;0.90;;
19547;SDS011;9919;58.014;11.826;2022-08-21T13:18:57;1.13;;;0.82;;
19547;SDS011;9919;58.014;11.826;2022-08-21T13:21:19;1.17;;;1.00;;
19547;SDS011;9919;58.014;11.826;2022-08-21T13:23:25;1.27;;;0.95;;
19547;SDS011;9919;58.014;11.826;2022-08-21T13:25:29;0.85;;;0.85;;
19547;SDS011;9919;58.014;11.826;2022-08-21T13:27:34;1.00;;;0.82;;
19547;SDS011;9919;58.014;11.826;2022-08-21T13:29:35;1.80;;;1.08;;
19547;SDS011;9919;58.014;11.826;2022-08-21T13:31:38;2.92;;;1.00;;
19547;SDS011;9919;58.014;11.826;2022-08-21T13:33:42;1.25;;;1.02;;
19547;SDS011;9919;58.014;11.826;2022-08-21T13:37:58;1.95;;;1.08;;
19547;SDS011;9919;58.014;11.826;2022-08-21T13:40:00;2.22;;;1.00;;
19547;SDS011;9919;58.014;11.826;2022-08-21T13:42:02;2.17;;;0.88;;
19547;SDS011;9919;58.014;11.826;2022-08-21T13:44:13;1.08;;;0.85;;
19547;SDS011;9919;58.014;11.826;2022-08-21T13:46:15;1.67;;;1.27;;